Eagle Stavanger — 3FNZ5 — position and weather

sailwx.info

Track history (hours):
 
Tides and Currents Weather Stations Pressure Air Temp Water Temp Dewpoint Dewpoint Depression Visibility Wind Speed Wind Dir Waves Ship Positions

Eagle Stavanger

Last reported at 2018-Jun-24 05:07 UTC. Time now 2018-Jun-25 09:55 UTC.
Position N 29°44' W 095°08'.

Length 228 m; draft 8.5 m.

Type: Tanker. MMSI: 370822000.

Date/timePositionNaut miles runAvg speedWind from/ knotsBaromVisibWave heightAir tempDewpointWater temp
2018-Jun-24 05:07N 29°44' W 095°08'0 0.0
2018-Jun-24 04:59N 29°44' W 095°08'1 1.2
2018-Jun-24 04:29N 29°44' W 095°07'3 5.0
2018-Jun-24 03:57N 29°45' W 095°04'4 6.4
2018-Jun-24 03:24N 29°43' W 095°01'3 7.4
2018-Jun-24 03:01N 29°41' W 094°59'5 9.4
2018-Jun-24 02:30N 29°36' W 094°57'510.1
2018-Jun-24 02:01N 29°32' W 094°54'8 9.4
2018-Jun-24 01:09N 29°25' W 094°50'2 9.1
2018-Jun-24 00:56N 29°23' W 094°49'17 9.1
2018-Jun-23 23:03N 29°15' W 094°31'210.0
2018-Jun-23 22:52N 29°13' W 094°32'3 9.6
2018-Jun-23 22:30N 29°10' W 094°34'0 0.5
2018-Jun-23 22:00N 29°10' W 094°34'0 0.1
2018-Jun-23 21:30N 29°10' W 094°34'0 0.1
2018-Jun-23 20:51N 29°10' W 094°34'0 0.0
2018-Jun-23 19:06N 29°10' W 094°34'0 0.0
2018-Jun-23 18:42N 29°10' W 094°34'0 0.1
2018-Jun-23 18:27N 29°10' W 094°34'0 0.1
2018-Jun-23 18:00N 29°10' W 094°34'0 0.0
2018-Jun-23 16:18N 29°10' W 094°34'0 0.0
2018-Jun-23 14:48N 29°10' W 094°34'0 0.0
2018-Jun-23 14:30N 29°10' W 094°34'0 0.0
2018-Jun-23 13:36N 29°10' W 094°34'0 0.1
2018-Jun-23 13:30N 29°10' W 094°34'0 0.0
2018-Jun-23 12:57N 29°10' W 094°34'0 0.0
2018-Jun-23 12:09N 29°10' W 094°34'0 0.0
2018-Jun-23 11:45N 29°10' W 094°34'0 0.0
2018-Jun-23 11:30N 29°10' W 094°34'0 0.0
2018-Jun-23 11:00N 29°10' W 094°34'0 0.0
2018-Jun-23 09:45N 29°10' W 094°34'0 0.0
2018-Jun-23 08:21N 29°10' W 094°34'0 0.0
2018-Jun-23 05:54N 29°10' W 094°34'0 0.0
2018-Jun-23 05:30N 29°10' W 094°34'0 0.0
2018-Jun-23 05:00N 29°10' W 094°34'0 0.0
2018-Jun-23 04:30N 29°10' W 094°34'0 0.0
2018-Jun-23 04:00N 29°10' W 094°34'0 0.0
2018-Jun-23 03:30N 29°10' W 094°34'0 0.0
2018-Jun-23 03:00N 29°10' W 094°34'0 0.0
2018-Jun-23 02:30N 29°10' W 094°34'0 0.0
2018-Jun-23 02:00N 29°10' W 094°34'0 0.0
2018-Jun-23 01:27N 29°10' W 094°34'0 0.0
2018-Jun-23 01:00N 29°10' W 094°34'0 0.1
2018-Jun-23 00:21N 29°10' W 094°34'0 0.3
2018-Jun-23 00:00N 29°10' W 094°34'2 4.3
2018-Jun-22 23:30N 29°08' W 094°35'611.8
2018-Jun-22 22:59N 29°02' W 094°37'611.6
2018-Jun-22 22:31N 28°59' W 094°42'612.2
2018-Jun-22 22:00N 28°55' W 094°48'612.5
2018-Jun-22 21:30N 28°52' W 094°54'612.5
2018-Jun-22 21:00N 28°48' W 094°60'612.3
2018-Jun-22 20:29N 28°45' W 095°06'712.4
2018-Jun-22 19:58N 28°41' W 095°12'812.5
2018-Jun-22 19:20N 28°37' W 095°19'412.6
2018-Jun-22 18:59N 28°35' W 095°24'1612.5
2018-Jun-22 17:42N 28°26' W 095°39'2612.8
2018-Jun-22 15:38N 28°11' W 096°04'  
Track history (hours):
 
Tides and Currents Weather Stations Pressure Air Temp Water Temp Dewpoint Dewpoint Depression Visibility Wind Speed Wind Dir Waves Ship Positions

Eagle Stavanger

Last reported at 2018-Jun-24 05:07 UTC. Time now 2018-Jun-25 09:55 UTC.
Position N 29°44' W 095°08'.

Length 228 m; draft 8.5 m.

Type: Tanker. MMSI: 370822000.

Date/timePositionNaut miles runAvg speedWind from/ knotsBaromVisibWave heightAir tempDewpointWater temp
2018-Jun-24 05:07N 29°44' W 095°08'0 0.0
2018-Jun-24 04:59N 29°44' W 095°08'1 1.2
2018-Jun-24 04:29N 29°44' W 095°07'3 5.0
2018-Jun-24 03:57N 29°45' W 095°04'4 6.4
2018-Jun-24 03:24N 29°43' W 095°01'3 7.4
2018-Jun-24 03:01N 29°41' W 094°59'5 9.4
2018-Jun-24 02:30N 29°36' W 094°57'510.1
2018-Jun-24 02:01N 29°32' W 094°54'8 9.4
2018-Jun-24 01:09N 29°25' W 094°50'2 9.1
2018-Jun-24 00:56N 29°23' W 094°49'17 9.1
2018-Jun-23 23:03N 29°15' W 094°31'210.0
2018-Jun-23 22:52N 29°13' W 094°32'3 9.6
2018-Jun-23 22:30N 29°10' W 094°34'0 0.5
2018-Jun-23 22:00N 29°10' W 094°34'0 0.1
2018-Jun-23 21:30N 29°10' W 094°34'0 0.1
2018-Jun-23 20:51N 29°10' W 094°34'0 0.0
2018-Jun-23 19:06N 29°10' W 094°34'0 0.0
2018-Jun-23 18:42N 29°10' W 094°34'0 0.1
2018-Jun-23 18:27N 29°10' W 094°34'0 0.1
2018-Jun-23 18:00N 29°10' W 094°34'0 0.0
2018-Jun-23 16:18N 29°10' W 094°34'0 0.0
2018-Jun-23 14:48N 29°10' W 094°34'0 0.0
2018-Jun-23 14:30N 29°10' W 094°34'0 0.0
2018-Jun-23 13:36N 29°10' W 094°34'0 0.1
2018-Jun-23 13:30N 29°10' W 094°34'0 0.0
2018-Jun-23 12:57N 29°10' W 094°34'0 0.0
2018-Jun-23 12:09N 29°10' W 094°34'0 0.0
2018-Jun-23 11:45N 29°10' W 094°34'0 0.0
2018-Jun-23 11:30N 29°10' W 094°34'0 0.0
2018-Jun-23 11:00N 29°10' W 094°34'0 0.0
2018-Jun-23 09:45N 29°10' W 094°34'0 0.0
2018-Jun-23 08:21N 29°10' W 094°34'0 0.0
2018-Jun-23 05:54N 29°10' W 094°34'0 0.0
2018-Jun-23 05:30N 29°10' W 094°34'0 0.0
2018-Jun-23 05:00N 29°10' W 094°34'0 0.0
2018-Jun-23 04:30N 29°10' W 094°34'0 0.0
2018-Jun-23 04:00N 29°10' W 094°34'0 0.0
2018-Jun-23 03:30N 29°10' W 094°34'0 0.0
2018-Jun-23 03:00N 29°10' W 094°34'0 0.0
2018-Jun-23 02:30N 29°10' W 094°34'0 0.0
2018-Jun-23 02:00N 29°10' W 094°34'0 0.0
2018-Jun-23 01:27N 29°10' W 094°34'0 0.0
2018-Jun-23 01:00N 29°10' W 094°34'0 0.1
2018-Jun-23 00:21N 29°10' W 094°34'0 0.3
2018-Jun-23 00:00N 29°10' W 094°34'2 4.3
2018-Jun-22 23:30N 29°08' W 094°35'611.8
2018-Jun-22 22:59N 29°02' W 094°37'611.6
2018-Jun-22 22:31N 28°59' W 094°42'612.2
2018-Jun-22 22:00N 28°55' W 094°48'612.5
2018-Jun-22 21:30N 28°52' W 094°54'612.5
2018-Jun-22 21:00N 28°48' W 094°60'612.3
2018-Jun-22 20:29N 28°45' W 095°06'712.4
2018-Jun-22 19:58N 28°41' W 095°12'812.5
2018-Jun-22 19:20N 28°37' W 095°19'412.6
2018-Jun-22 18:59N 28°35' W 095°24'1612.5
2018-Jun-22 17:42N 28°26' W 095°39'2612.8
2018-Jun-22 15:38N 28°11' W 096°04'  

Dump ship's entire track history